sensor_id;sensor_type;location;lat;lon;timestamp;P1;durP1;ratioP1;P2;durP2;ratioP2
26540;SDS011;14206;50.202;10.948;2023-07-24T00:00:33;1.17;;;1.08;;
26540;SDS011;14206;50.202;10.948;2023-07-24T00:03:02;1.25;;;1.10;;
26540;SDS011;14206;50.202;10.948;2023-07-24T00:05:29;1.25;;;1.00;;
26540;SDS011;14206;50.202;10.948;2023-07-24T00:07:56;1.02;;;0.93;;
26540;SDS011;14206;50.202;10.948;2023-07-24T00:10:23;1.30;;;0.90;;
26540;SDS011;14206;50.202;10.948;2023-07-24T00:12:51;1.10;;;1.00;;
26540;SDS011;14206;50.202;10.948;2023-07-24T00:15:17;1.08;;;0.98;;
26540;SDS011;14206;50.202;10.948;2023-07-24T00:17:44;1.20;;;1.10;;
26540;SDS011;14206;50.202;10.948;2023-07-24T00:20:11;1.55;;;1.00;;
26540;SDS011;14206;50.202;10.948;2023-07-24T00:22:38;1.20;;;1.00;;
26540;SDS011;14206;50.202;10.948;2023-07-24T00:25:05;1.42;;;1.33;;
26540;SDS011;14206;50.202;10.948;2023-07-24T00:27:33;1.25;;;1.08;;
26540;SDS011;14206;50.202;10.948;2023-07-24T00:29:59;1.40;;;1.30;;
26540;SDS011;14206;50.202;10.948;2023-07-24T00:32:26;1.27;;;1.15;;
26540;SDS011;14206;50.202;10.948;2023-07-24T00:34:54;1.77;;;1.10;;
26540;SDS011;14206;50.202;10.948;2023-07-24T00:37:22;1.92;;;1.20;;
26540;SDS011;14206;50.202;10.948;2023-07-24T00:39:50;1.20;;;1.10;;
26540;SDS011;14206;50.202;10.948;2023-07-24T00:42:17;1.73;;;1.23;;
26540;SDS011;14206;50.202;10.948;2023-07-24T00:44:47;1.40;;;1.30;;
26540;SDS011;14206;50.202;10.948;2023-07-24T00:47:16;2.33;;;1.98;;
26540;SDS011;14206;50.202;10.948;2023-07-24T00:49:45;1.88;;;1.67;;
26540;SDS011;14206;50.202;10.948;2023-07-24T00:52:13;1.83;;;1.42;;
26540;SDS011;14206;50.202;10.948;2023-07-24T00:54:41;1.30;;;1.20;;
26540;SDS011;14206;50.202;10.948;2023-07-24T00:57:12;1.58;;;1.35;;
26540;SDS011;14206;50.202;10.948;2023-07-24T00:59:40;1.52;;;1.20;;
26540;SDS011;14206;50.202;10.948;2023-07-24T01:02:08;2.05;;;1.20;;
26540;SDS011;14206;50.202;10.948;2023-07-24T01:04:38;1.17;;;1.08;;
26540;SDS011;14206;50.202;10.948;2023-07-24T01:07:05;1.13;;;1.02;;
26540;SDS011;14206;50.202;10.948;2023-07-24T01:09:33;1.55;;;1.02;;
26540;SDS011;14206;50.202;10.948;2023-07-24T01:12:34;1.30;;;1.10;;
26540;SDS011;14206;50.202;10.948;2023-07-24T01:18:11;1.27;;;1.17;;
26540;SDS011;14206;50.202;10.948;2023-07-24T01:20:47;1.10;;;1.00;;
26540;SDS011;14206;50.202;10.948;2023-07-24T01:26:05;1.23;;;1.13;;
26540;SDS011;14206;50.202;10.948;2023-07-24T01:28:34;1.13;;;1.02;;
26540;SDS011;14206;50.202;10.948;2023-07-24T01:31:01;1.30;;;1.00;;
26540;SDS011;14206;50.202;10.948;2023-07-24T01:33:28;1.73;;;1.25;;
26540;SDS011;14206;50.202;10.948;2023-07-24T01:35:57;2.28;;;1.23;;
26540;SDS011;14206;50.202;10.948;2023-07-24T01:38:25;1.10;;;1.00;;
26540;SDS011;14206;50.202;10.948;2023-07-24T01:40:53;1.27;;;1.15;;
26540;SDS011;14206;50.202;10.948;2023-07-24T01:43:21;1.20;;;1.10;;
26540;SDS011;14206;50.202;10.948;2023-07-24T01:45:49;1.27;;;1.17;;
26540;SDS011;14206;50.202;10.948;2023-07-24T01:48:16;1.13;;;1.02;;
26540;SDS011;14206;50.202;10.948;2023-07-24T01:50:43;1.30;;;1.20;;
26540;SDS011;14206;50.202;10.948;2023-07-24T01:53:11;1.30;;;1.20;;
26540;SDS011;14206;50.202;10.948;2023-07-24T01:55:38;2.30;;;1.65;;
26540;SDS011;14206;50.202;10.948;2023-07-24T01:58:05;2.00;;;1.50;;
26540;SDS011;14206;50.202;10.948;2023-07-24T02:00:33;1.98;;;1.60;;
26540;SDS011;14206;50.202;10.948;2023-07-24T02:03:00;1.73;;;1.48;;
26540;SDS011;14206;50.202;10.948;2023-07-24T02:05:27;1.50;;;1.20;;
26540;SDS011;14206;50.202;10.948;2023-07-24T02:07:55;1.52;;;1.23;;
26540;SDS011;14206;50.202;10.948;2023-07-24T02:10:22;1.27;;;1.17;;
26540;SDS011;14206;50.202;10.948;2023-07-24T02:12:48;1.30;;;1.20;;
26540;SDS011;14206;50.202;10.948;2023-07-24T02:15:15;1.85;;;1.40;;
26540;SDS011;14206;50.202;10.948;2023-07-24T02:17:42;1.55;;;1.42;;
26540;SDS011;14206;50.202;10.948;2023-07-24T02:20:09;1.95;;;1.38;;
26540;SDS011;14206;50.202;10.948;2023-07-24T02:22:36;1.30;;;1.20;;
26540;SDS011;14206;50.202;10.948;2023-07-24T02:25:05;2.15;;;1.52;;
26540;SDS011;14206;50.202;10.948;2023-07-24T02:27:32;1.40;;;1.30;;
26540;SDS011;14206;50.202;10.948;2023-07-24T02:30:01;1.50;;;1.27;;
26540;SDS011;14206;50.202;10.948;2023-07-24T02:32:28;1.50;;;1.20;;
26540;SDS011;14206;50.202;10.948;2023-07-24T02:34:55;1.52;;;1.33;;
26540;SDS011;14206;50.202;10.948;2023-07-24T02:37:22;3.15;;;2.20;;
26540;SDS011;14206;50.202;10.948;2023-07-24T02:39:49;2.17;;;1.83;;
26540;SDS011;14206;50.202;10.948;2023-07-24T02:42:19;1.85;;;1.63;;
26540;SDS011;14206;50.202;10.948;2023-07-24T02:44:46;2.20;;;1.65;;
26540;SDS011;14206;50.202;10.948;2023-07-24T02:47:12;1.42;;;1.33;;
26540;SDS011;14206;50.202;10.948;2023-07-24T02:49:39;1.17;;;1.05;;
26540;SDS011;14206;50.202;10.948;2023-07-24T02:52:06;2.05;;;1.70;;
26540;SDS011;14206;50.202;10.948;2023-07-24T02:54:34;3.85;;;2.70;;
26540;SDS011;14206;50.202;10.948;2023-07-24T02:57:00;4.57;;;3.70;;
26540;SDS011;14206;50.202;10.948;2023-07-24T02:59:29;4.88;;;3.88;;
26540;SDS011;14206;50.202;10.948;2023-07-24T03:01:58;3.20;;;2.70;;
26540;SDS011;14206;50.202;10.948;2023-07-24T03:04:25;3.30;;;2.58;;
26540;SDS011;14206;50.202;10.948;2023-07-24T03:06:52;3.05;;;2.40;;
26540;SDS011;14206;50.202;10.948;2023-07-24T03:09:20;2.50;;;1.92;;
26540;SDS011;14206;50.202;10.948;2023-07-24T03:11:47;2.20;;;1.80;;
26540;SDS011;14206;50.202;10.948;2023-07-24T03:14:23;5.62;;;3.66;;
26540;SDS011;14206;50.202;10.948;2023-07-24T03:16:50;3.80;;;3.30;;
26540;SDS011;14206;50.202;10.948;2023-07-24T03:19:17;3.33;;;2.60;;
26540;SDS011;14206;50.202;10.948;2023-07-24T03:21:46;3.72;;;2.88;;
26540;SDS011;14206;50.202;10.948;2023-07-24T03:24:13;4.38;;;2.78;;
26540;SDS011;14206;50.202;10.948;2023-07-24T03:26:40;3.05;;;2.55;;
26540;SDS011;14206;50.202;10.948;2023-07-24T03:29:07;3.05;;;2.38;;
26540;SDS011;14206;50.202;10.948;2023-07-24T03:31:34;2.90;;;2.50;;
26540;SDS011;14206;50.202;10.948;2023-07-24T03:34:01;4.85;;;3.63;;
26540;SDS011;14206;50.202;10.948;2023-07-24T03:36:28;5.22;;;3.90;;
26540;SDS011;14206;50.202;10.948;2023-07-24T03:38:56;4.75;;;3.92;;
26540;SDS011;14206;50.202;10.948;2023-07-24T03:41:23;5.03;;;3.83;;
26540;SDS011;14206;50.202;10.948;2023-07-24T03:43:53;5.57;;;3.83;;
26540;SDS011;14206;50.202;10.948;2023-07-24T03:46:20;5.22;;;4.15;;
26540;SDS011;14206;50.202;10.948;2023-07-24T03:48:46;5.85;;;4.53;;
26540;SDS011;14206;50.202;10.948;2023-07-24T03:51:14;6.03;;;4.07;;
26540;SDS011;14206;50.202;10.948;2023-07-24T03:53:41;5.50;;;4.15;;
26540;SDS011;14206;50.202;10.948;2023-07-24T03:56:08;4.63;;;3.50;;
26540;SDS011;14206;50.202;10.948;2023-07-24T03:58:36;4.65;;;3.60;;
26540;SDS011;14206;50.202;10.948;2023-07-24T04:01:05;4.32;;;3.45;;
26540;SDS011;14206;50.202;10.948;2023-07-24T04:03:32;5.13;;;3.92;;
26540;SDS011;14206;50.202;10.948;2023-07-24T04:06:00;3.72;;;2.97;;
26540;SDS011;14206;50.202;10.948;2023-07-24T04:08:27;3.85;;;3.00;;
26540;SDS011;14206;50.202;10.948;2023-07-24T04:10:54;3.92;;;2.85;;
26540;SDS011;14206;50.202;10.948;2023-07-24T04:13:24;5.25;;;4.10;;
26540;SDS011;14206;50.202;10.948;2023-07-24T04:15:51;5.82;;;4.38;;
26540;SDS011;14206;50.202;10.948;2023-07-24T04:18:18;5.82;;;3.92;;
26540;SDS011;14206;50.202;10.948;2023-07-24T04:20:45;5.57;;;4.18;;
26540;SDS011;14206;50.202;10.948;2023-07-24T04:23:12;6.15;;;4.47;;
26540;SDS011;14206;50.202;10.948;2023-07-24T04:25:39;5.10;;;3.90;;
26540;SDS011;14206;50.202;10.948;2023-07-24T04:28:06;3.92;;;3.10;;
26540;SDS011;14206;50.202;10.948;2023-07-24T04:30:33;4.07;;;2.97;;
26540;SDS011;14206;50.202;10.948;2023-07-24T04:33:05;4.35;;;3.10;;
26540;SDS011;14206;50.202;10.948;2023-07-24T04:35:32;4.13;;;3.13;;
26540;SDS011;14206;50.202;10.948;2023-07-24T04:37:59;3.67;;;3.00;;
26540;SDS011;14206;50.202;10.948;2023-07-24T04:40:26;3.17;;;2.42;;
26540;SDS011;14206;50.202;10.948;2023-07-24T04:42:53;4.40;;;3.40;;
26540;SDS011;14206;50.202;10.948;2023-07-24T04:45:20;4.68;;;3.38;;
26540;SDS011;14206;50.202;10.948;2023-07-24T04:47:49;3.85;;;2.90;;
26540;SDS011;14206;50.202;10.948;2023-07-24T04:50:16;3.60;;;3.03;;
26540;SDS011;14206;50.202;10.948;2023-07-24T04:52:43;5.05;;;3.50;;
26540;SDS011;14206;50.202;10.948;2023-07-24T04:55:10;4.97;;;3.65;;
26540;SDS011;14206;50.202;10.948;2023-07-24T04:57:37;4.72;;;3.55;;
26540;SDS011;14206;50.202;10.948;2023-07-24T05:00:04;4.72;;;3.15;;
26540;SDS011;14206;50.202;10.948;2023-07-24T05:02:32;4.05;;;3.30;;
26540;SDS011;14206;50.202;10.948;2023-07-24T05:04:59;4.43;;;3.17;;
26540;SDS011;14206;50.202;10.948;2023-07-24T05:07:26;4.32;;;3.10;;
26540;SDS011;14206;50.202;10.948;2023-07-24T05:09:53;4.57;;;3.10;;
26540;SDS011;14206;50.202;10.948;2023-07-24T05:12:20;4.07;;;3.42;;
26540;SDS011;14206;50.202;10.948;2023-07-24T05:14:47;4.50;;;3.42;;
26540;SDS011;14206;50.202;10.948;2023-07-24T05:17:14;4.20;;;3.15;;
26540;SDS011;14206;50.202;10.948;2023-07-24T05:19:41;3.97;;;3.00;;
26540;SDS011;14206;50.202;10.948;2023-07-24T05:22:08;5.00;;;3.85;;
26540;SDS011;14206;50.202;10.948;2023-07-24T05:24:36;5.28;;;3.80;;
26540;SDS011;14206;50.202;10.948;2023-07-24T05:27:04;4.75;;;3.78;;
26540;SDS011;14206;50.202;10.948;2023-07-24T05:29:31;5.88;;;4.47;;
26540;SDS011;14206;50.202;10.948;2023-07-24T05:31:58;5.50;;;3.75;;
26540;SDS011;14206;50.202;10.948;2023-07-24T05:34:25;4.32;;;3.53;;
26540;SDS011;14206;50.202;10.948;2023-07-24T05:36:52;6.10;;;4.57;;
26540;SDS011;14206;50.202;10.948;2023-07-24T05:39:19;5.55;;;3.72;;
26540;SDS011;14206;50.202;10.948;2023-07-24T05:41:47;5.57;;;3.90;;
26540;SDS011;14206;50.202;10.948;2023-07-24T05:44:14;7.80;;;5.82;;
26540;SDS011;14206;50.202;10.948;2023-07-24T05:46:41;4.78;;;4.07;;
26540;SDS011;14206;50.202;10.948;2023-07-24T05:49:08;7.50;;;5.38;;
26540;SDS011;14206;50.202;10.948;2023-07-24T05:51:35;8.65;;;5.63;;
26540;SDS011;14206;50.202;10.948;2023-07-24T05:54:02;5.85;;;4.68;;
26540;SDS011;14206;50.202;10.948;2023-07-24T05:56:29;6.60;;;4.78;;
26540;SDS011;14206;50.202;10.948;2023-07-24T05:58:56;8.05;;;5.68;;
26540;SDS011;14206;50.202;10.948;2023-07-24T06:01:23;5.82;;;4.45;;
26540;SDS011;14206;50.202;10.948;2023-07-24T06:03:50;7.68;;;4.90;;
26540;SDS011;14206;50.202;10.948;2023-07-24T06:06:17;7.72;;;5.47;;
26540;SDS011;14206;50.202;10.948;2023-07-24T06:08:44;5.80;;;4.40;;
26540;SDS011;14206;50.202;10.948;2023-07-24T06:11:11;7.15;;;5.18;;
26540;SDS011;14206;50.202;10.948;2023-07-24T06:13:38;6.32;;;5.00;;
26540;SDS011;14206;50.202;10.948;2023-07-24T06:16:05;7.18;;;5.20;;
26540;SDS011;14206;50.202;10.948;2023-07-24T06:18:34;7.70;;;5.15;;
26540;SDS011;14206;50.202;10.948;2023-07-24T06:21:01;5.50;;;4.13;;
26540;SDS011;14206;50.202;10.948;2023-07-24T06:23:28;6.97;;;4.90;;
26540;SDS011;14206;50.202;10.948;2023-07-24T06:25:54;6.63;;;4.90;;
26540;SDS011;14206;50.202;10.948;2023-07-24T06:28:21;5.75;;;4.55;;
26540;SDS011;14206;50.202;10.948;2023-07-24T06:30:51;6.40;;;4.65;;
26540;SDS011;14206;50.202;10.948;2023-07-24T06:33:19;5.82;;;4.47;;
26540;SDS011;14206;50.202;10.948;2023-07-24T06:35:50;6.53;;;4.68;;
26540;SDS011;14206;50.202;10.948;2023-07-24T06:38:17;7.68;;;5.43;;
26540;SDS011;14206;50.202;10.948;2023-07-24T06:40:44;6.50;;;4.90;;
26540;SDS011;14206;50.202;10.948;2023-07-24T06:43:11;5.82;;;4.53;;
26540;SDS011;14206;50.202;10.948;2023-07-24T06:45:38;6.25;;;4.53;;
26540;SDS011;14206;50.202;10.948;2023-07-24T06:48:07;6.88;;;5.35;;
26540;SDS011;14206;50.202;10.948;2023-07-24T06:50:33;7.47;;;5.05;;
26540;SDS011;14206;50.202;10.948;2023-07-24T06:53:00;6.43;;;4.63;;
26540;SDS011;14206;50.202;10.948;2023-07-24T06:55:27;7.97;;;4.38;;
26540;SDS011;14206;50.202;10.948;2023-07-24T06:57:54;6.55;;;5.13;;
26540;SDS011;14206;50.202;10.948;2023-07-24T07:00:21;6.63;;;4.68;;
26540;SDS011;14206;50.202;10.948;2023-07-24T07:02:48;6.15;;;4.85;;
26540;SDS011;14206;50.202;10.948;2023-07-24T07:05:15;7.22;;;4.10;;
26540;SDS011;14206;50.202;10.948;2023-07-24T07:07:42;4.93;;;4.18;;
26540;SDS011;14206;50.202;10.948;2023-07-24T07:10:09;6.00;;;4.32;;
26540;SDS011;14206;50.202;10.948;2023-07-24T07:12:36;6.22;;;4.53;;
26540;SDS011;14206;50.202;10.948;2023-07-24T07:15:03;6.90;;;4.93;;
26540;SDS011;14206;50.202;10.948;2023-07-24T07:17:30;4.95;;;4.10;;
26540;SDS011;14206;50.202;10.948;2023-07-24T07:19:57;7.75;;;5.25;;
26540;SDS011;14206;50.202;10.948;2023-07-24T07:22:24;8.25;;;5.80;;
26540;SDS011;14206;50.202;10.948;2023-07-24T07:24:51;7.40;;;5.47;;
26540;SDS011;14206;50.202;10.948;2023-07-24T07:27:18;8.38;;;5.97;;
26540;SDS011;14206;50.202;10.948;2023-07-24T07:29:45;7.55;;;5.90;;
26540;SDS011;14206;50.202;10.948;2023-07-24T07:32:12;7.35;;;5.60;;
26540;SDS011;14206;50.202;10.948;2023-07-24T07:34:39;9.18;;;6.47;;
26540;SDS011;14206;50.202;10.948;2023-07-24T07:37:06;7.30;;;5.35;;
26540;SDS011;14206;50.202;10.948;2023-07-24T07:39:33;8.38;;;6.40;;
26540;SDS011;14206;50.202;10.948;2023-07-24T07:42:00;9.48;;;6.65;;
26540;SDS011;14206;50.202;10.948;2023-07-24T07:44:33;8.75;;;6.30;;
26540;SDS011;14206;50.202;10.948;2023-07-24T07:46:59;8.57;;;6.00;;
26540;SDS011;14206;50.202;10.948;2023-07-24T07:49:26;8.95;;;5.95;;
26540;SDS011;14206;50.202;10.948;2023-07-24T07:51:56;8.52;;;6.10;;
26540;SDS011;14206;50.202;10.948;2023-07-24T07:54:23;9.50;;;6.10;;
26540;SDS011;14206;50.202;10.948;2023-07-24T07:56:50;8.70;;;6.65;;
26540;SDS011;14206;50.202;10.948;2023-07-24T07:59:17;7.63;;;5.15;;
26540;SDS011;14206;50.202;10.948;2023-07-24T08:01:44;8.60;;;6.03;;
26540;SDS011;14206;50.202;10.948;2023-07-24T08:04:12;7.13;;;5.35;;
26540;SDS011;14206;50.202;10.948;2023-07-24T08:06:39;5.75;;;4.70;;
26540;SDS011;14206;50.202;10.948;2023-07-24T08:09:06;9.35;;;5.72;;
26540;SDS011;14206;50.202;10.948;2023-07-24T08:11:33;7.63;;;4.93;;
26540;SDS011;14206;50.202;10.948;2023-07-24T08:14:00;6.05;;;5.03;;
26540;SDS011;14206;50.202;10.948;2023-07-24T08:16:27;7.55;;;5.35;;
26540;SDS011;14206;50.202;10.948;2023-07-24T08:18:54;10.27;;;5.63;;
26540;SDS011;14206;50.202;10.948;2023-07-24T08:21:23;5.22;;;4.65;;
26540;SDS011;14206;50.202;10.948;2023-07-24T08:23:50;7.97;;;5.80;;
26540;SDS011;14206;50.202;10.948;2023-07-24T08:26:17;8.70;;;5.65;;
26540;SDS011;14206;50.202;10.948;2023-07-24T08:28:44;7.93;;;5.35;;
26540;SDS011;14206;50.202;10.948;2023-07-24T08:31:11;8.55;;;6.07;;
26540;SDS011;14206;50.202;10.948;2023-07-24T08:33:38;6.50;;;4.95;;
26540;SDS011;14206;50.202;10.948;2023-07-24T08:36:08;6.72;;;5.13;;
26540;SDS011;14206;50.202;10.948;2023-07-24T08:38:35;11.20;;;6.20;;
26540;SDS011;14206;50.202;10.948;2023-07-24T08:41:06;7.25;;;5.68;;
26540;SDS011;14206;50.202;10.948;2023-07-24T08:43:35;8.38;;;5.68;;
26540;SDS011;14206;50.202;10.948;2023-07-24T08:46:04;8.18;;;5.72;;
26540;SDS011;14206;50.202;10.948;2023-07-24T08:48:33;8.20;;;5.82;;
26540;SDS011;14206;50.202;10.948;2023-07-24T08:51:04;9.30;;;6.50;;
26540;SDS011;14206;50.202;10.948;2023-07-24T08:53:33;11.43;;;7.05;;
26540;SDS011;14206;50.202;10.948;2023-07-24T08:56:05;7.95;;;5.88;;
26540;SDS011;14206;50.202;10.948;2023-07-24T08:58:33;7.80;;;5.85;;
26540;SDS011;14206;50.202;10.948;2023-07-24T09:01:02;8.52;;;6.22;;
26540;SDS011;14206;50.202;10.948;2023-07-24T09:03:32;7.15;;;5.50;;
26540;SDS011;14206;50.202;10.948;2023-07-24T09:06:00;8.02;;;6.30;;
26540;SDS011;14206;50.202;10.948;2023-07-24T09:08:37;8.00;;;6.05;;
26540;SDS011;14206;50.202;10.948;2023-07-24T09:11:06;7.18;;;5.93;;
26540;SDS011;14206;50.202;10.948;2023-07-24T09:13:37;7.80;;;6.10;;
26540;SDS011;14206;50.202;10.948;2023-07-24T09:16:08;9.13;;;6.57;;
26540;SDS011;14206;50.202;10.948;2023-07-24T09:18:42;9.35;;;6.55;;
26540;SDS011;14206;50.202;10.948;2023-07-24T09:21:09;6.70;;;5.70;;
26540;SDS011;14206;50.202;10.948;2023-07-24T09:23:39;8.18;;;6.00;;
26540;SDS011;14206;50.202;10.948;2023-07-24T09:26:10;9.85;;;6.00;;
26540;SDS011;14206;50.202;10.948;2023-07-24T09:28:36;7.97;;;6.18;;
26540;SDS011;14206;50.202;10.948;2023-07-24T09:31:04;8.95;;;6.40;;
26540;SDS011;14206;50.202;10.948;2023-07-24T09:33:35;7.68;;;5.60;;
26540;SDS011;14206;50.202;10.948;2023-07-24T09:36:04;6.85;;;5.25;;
26540;SDS011;14206;50.202;10.948;2023-07-24T09:38:37;7.80;;;5.80;;
26540;SDS011;14206;50.202;10.948;2023-07-24T09:41:06;8.35;;;5.95;;
26540;SDS011;14206;50.202;10.948;2023-07-24T09:43:33;10.77;;;7.13;;
26540;SDS011;14206;50.202;10.948;2023-07-24T09:46:07;10.60;;;6.50;;
26540;SDS011;14206;50.202;10.948;2023-07-24T09:48:37;9.57;;;6.63;;
26540;SDS011;14206;50.202;10.948;2023-07-24T09:51:09;9.35;;;6.95;;
26540;SDS011;14206;50.202;10.948;2023-07-24T09:53:43;9.98;;;7.20;;
26540;SDS011;14206;50.202;10.948;2023-07-24T09:56:14;9.73;;;7.05;;
26540;SDS011;14206;50.202;10.948;2023-07-24T09:58:43;10.85;;;7.63;;
26540;SDS011;14206;50.202;10.948;2023-07-24T10:01:12;10.32;;;7.32;;
26540;SDS011;14206;50.202;10.948;2023-07-24T10:03:40;9.20;;;6.53;;
26540;SDS011;14206;50.202;10.948;2023-07-24T10:06:13;10.63;;;7.82;;
26540;SDS011;14206;50.202;10.948;2023-07-24T10:08:42;10.25;;;7.03;;
26540;SDS011;14206;50.202;10.948;2023-07-24T10:11:09;11.43;;;7.75;;
26540;SDS011;14206;50.202;10.948;2023-07-24T10:13:38;9.93;;;6.97;;
26540;SDS011;14206;50.202;10.948;2023-07-24T10:16:06;8.90;;;6.70;;
26540;SDS011;14206;50.202;10.948;2023-07-24T10:18:35;11.18;;;7.35;;
26540;SDS011;14206;50.202;10.948;2023-07-24T10:21:08;8.27;;;6.38;;
26540;SDS011;14206;50.202;10.948;2023-07-24T10:23:36;10.60;;;7.18;;
26540;SDS011;14206;50.202;10.948;2023-07-24T10:26:07;8.13;;;5.53;;
26540;SDS011;14206;50.202;10.948;2023-07-24T10:28:36;8.77;;;5.72;;
26540;SDS011;14206;50.202;10.948;2023-07-24T10:31:21;8.40;;;5.78;;
26540;SDS011;14206;50.202;10.948;2023-07-24T10:33:50;8.15;;;6.35;;
26540;SDS011;14206;50.202;10.948;2023-07-24T10:36:18;9.20;;;6.25;;
26540;SDS011;14206;50.202;10.948;2023-07-24T10:38:46;6.38;;;4.90;;
26540;SDS011;14206;50.202;10.948;2023-07-24T10:41:18;8.75;;;5.60;;
26540;SDS011;14206;50.202;10.948;2023-07-24T10:43:51;7.78;;;5.65;;
26540;SDS011;14206;50.202;10.948;2023-07-24T10:46:19;8.83;;;6.20;;
26540;SDS011;14206;50.202;10.948;2023-07-24T10:48:47;6.25;;;5.30;;
26540;SDS011;14206;50.202;10.948;2023-07-24T10:51:16;9.48;;;6.68;;
26540;SDS011;14206;50.202;10.948;2023-07-24T10:53:46;8.85;;;6.25;;
26540;SDS011;14206;50.202;10.948;2023-07-24T10:56:15;7.40;;;5.07;;
26540;SDS011;14206;50.202;10.948;2023-07-24T10:58:42;8.65;;;5.70;;
26540;SDS011;14206;50.202;10.948;2023-07-24T11:01:09;6.18;;;4.38;;
26540;SDS011;14206;50.202;10.948;2023-07-24T11:03:39;7.22;;;5.63;;
26540;SDS011;14206;50.202;10.948;2023-07-24T11:06:17;7.90;;;5.63;;
26540;SDS011;14206;50.202;10.948;2023-07-24T11:08:52;9.70;;;7.22;;
26540;SDS011;14206;50.202;10.948;2023-07-24T11:11:27;7.75;;;6.03;;
26540;SDS011;14206;50.202;10.948;2023-07-24T11:14:00;7.05;;;5.60;;
26540;SDS011;14206;50.202;10.948;2023-07-24T11:16:28;9.38;;;6.15;;
26540;SDS011;14206;50.202;10.948;2023-07-24T11:19:00;7.32;;;5.60;;
26540;SDS011;14206;50.202;10.948;2023-07-24T11:21:27;7.28;;;5.65;;
26540;SDS011;14206;50.202;10.948;2023-07-24T11:23:56;7.05;;;5.30;;
26540;SDS011;14206;50.202;10.948;2023-07-24T11:26:24;7.72;;;6.03;;
26540;SDS011;14206;50.202;10.948;2023-07-24T11:28:53;9.38;;;6.07;;
26540;SDS011;14206;50.202;10.948;2023-07-24T11:31:20;7.32;;;5.57;;
26540;SDS011;14206;50.202;10.948;2023-07-24T11:33:51;8.18;;;6.13;;
26540;SDS011;14206;50.202;10.948;2023-07-24T11:36:18;12.85;;;7.30;;
26540;SDS011;14206;50.202;10.948;2023-07-24T11:38:46;9.43;;;6.38;;
26540;SDS011;14206;50.202;10.948;2023-07-24T11:41:13;9.30;;;6.90;;
26540;SDS011;14206;50.202;10.948;2023-07-24T11:43:46;9.13;;;6.65;;
26540;SDS011;14206;50.202;10.948;2023-07-24T11:46:24;8.55;;;6.25;;
26540;SDS011;14206;50.202;10.948;2023-07-24T11:48:53;7.60;;;6.35;;
26540;SDS011;14206;50.202;10.948;2023-07-24T11:51:25;9.57;;;6.47;;
26540;SDS011;14206;50.202;10.948;2023-07-24T11:54:03;8.70;;;7.00;;
26540;SDS011;14206;50.202;10.948;2023-07-24T11:56:34;10.02;;;7.03;;
26540;SDS011;14206;50.202;10.948;2023-07-24T11:59:11;8.82;;;6.47;;
26540;SDS011;14206;50.202;10.948;2023-07-24T12:01:40;10.15;;;7.10;;
26540;SDS011;14206;50.202;10.948;2023-07-24T12:04:07;8.25;;;6.80;;
26540;SDS011;14206;50.202;10.948;2023-07-24T12:06:35;9.85;;;7.10;;
26540;SDS011;14206;50.202;10.948;2023-07-24T12:09:02;9.55;;;6.95;;
26540;SDS011;14206;50.202;10.948;2023-07-24T12:11:33;12.25;;;7.70;;
26540;SDS011;14206;50.202;10.948;2023-07-24T12:14:05;9.77;;;7.10;;
26540;SDS011;14206;50.202;10.948;2023-07-24T12:16:33;8.32;;;6.22;;
26540;SDS011;14206;50.202;10.948;2023-07-24T12:19:00;8.85;;;6.50;;
26540;SDS011;14206;50.202;10.948;2023-07-24T12:21:27;9.23;;;6.70;;
26540;SDS011;14206;50.202;10.948;2023-07-24T12:23:55;8.52;;;6.20;;
26540;SDS011;14206;50.202;10.948;2023-07-24T12:26:22;9.10;;;6.03;;
26540;SDS011;14206;50.202;10.948;2023-07-24T12:28:51;8.20;;;6.43;;
26540;SDS011;14206;50.202;10.948;2023-07-24T12:31:18;8.60;;;6.32;;
26540;SDS011;14206;50.202;10.948;2023-07-24T12:33:45;8.07;;;6.50;;
26540;SDS011;14206;50.202;10.948;2023-07-24T12:36:12;9.93;;;6.63;;
26540;SDS011;14206;50.202;10.948;2023-07-24T12:38:39;7.90;;;6.18;;
26540;SDS011;14206;50.202;10.948;2023-07-24T12:41:05;8.60;;;6.40;;
26540;SDS011;14206;50.202;10.948;2023-07-24T12:43:32;8.57;;;6.50;;
26540;SDS011;14206;50.202;10.948;2023-07-24T12:45:59;7.45;;;5.72;;
26540;SDS011;14206;50.202;10.948;2023-07-24T12:48:26;7.68;;;5.70;;
26540;SDS011;14206;50.202;10.948;2023-07-24T12:50:56;7.97;;;6.18;;
26540;SDS011;14206;50.202;10.948;2023-07-24T12:53:24;6.85;;;5.45;;
26540;SDS011;14206;50.202;10.948;2023-07-24T12:55:57;7.95;;;6.07;;
26540;SDS011;14206;50.202;10.948;2023-07-24T12:58:24;8.13;;;5.85;;
26540;SDS011;14206;50.202;10.948;2023-07-24T13:00:51;6.60;;;5.50;;
26540;SDS011;14206;50.202;10.948;2023-07-24T13:03:18;6.70;;;5.45;;
26540;SDS011;14206;50.202;10.948;2023-07-24T13:05:45;7.82;;;5.85;;
26540;SDS011;14206;50.202;10.948;2023-07-24T13:08:12;6.10;;;5.43;;
26540;SDS011;14206;50.202;10.948;2023-07-24T13:10:40;7.10;;;5.20;;
26540;SDS011;14206;50.202;10.948;2023-07-24T13:13:07;8.68;;;5.75;;
26540;SDS011;14206;50.202;10.948;2023-07-24T13:15:35;9.77;;;5.85;;
26540;SDS011;14206;50.202;10.948;2023-07-24T13:18:05;7.30;;;5.30;;
26540;SDS011;14206;50.202;10.948;2023-07-24T13:20:52;7.72;;;5.47;;
26540;SDS011;14206;50.202;10.948;2023-07-24T13:23:19;7.63;;;5.70;;
26540;SDS011;14206;50.202;10.948;2023-07-24T13:25:46;7.15;;;5.28;;
26540;SDS011;14206;50.202;10.948;2023-07-24T13:28:12;6.95;;;5.20;;
26540;SDS011;14206;50.202;10.948;2023-07-24T13:30:40;7.45;;;5.40;;
26540;SDS011;14206;50.202;10.948;2023-07-24T13:33:07;7.00;;;5.50;;
26540;SDS011;14206;50.202;10.948;2023-07-24T13:35:34;6.82;;;5.50;;
26540;SDS011;14206;50.202;10.948;2023-07-24T13:38:02;11.73;;;5.40;;
26540;SDS011;14206;50.202;10.948;2023-07-24T13:40:29;6.90;;;4.93;;
26540;SDS011;14206;50.202;10.948;2023-07-24T13:42:57;7.75;;;5.90;;
26540;SDS011;14206;50.202;10.948;2023-07-24T13:45:25;8.05;;;6.05;;
26540;SDS011;14206;50.202;10.948;2023-07-24T13:47:52;8.05;;;5.95;;
26540;SDS011;14206;50.202;10.948;2023-07-24T13:50:19;9.93;;;5.57;;
26540;SDS011;14206;50.202;10.948;2023-07-24T13:52:46;9.05;;;6.00;;
26540;SDS011;14206;50.202;10.948;2023-07-24T13:55:13;7.45;;;5.80;;
26540;SDS011;14206;50.202;10.948;2023-07-24T13:57:40;6.88;;;5.68;;
26540;SDS011;14206;50.202;10.948;2023-07-24T14:00:07;7.80;;;5.75;;
26540;SDS011;14206;50.202;10.948;2023-07-24T14:02:38;7.45;;;5.15;;
26540;SDS011;14206;50.202;10.948;2023-07-24T14:05:06;7.50;;;4.97;;
26540;SDS011;14206;50.202;10.948;2023-07-24T14:07:33;6.53;;;5.13;;
26540;SDS011;14206;50.202;10.948;2023-07-24T14:10:00;6.30;;;5.40;;
26540;SDS011;14206;50.202;10.948;2023-07-24T14:12:27;6.43;;;5.05;;
26540;SDS011;14206;50.202;10.948;2023-07-24T14:14:54;7.53;;;5.45;;
26540;SDS011;14206;50.202;10.948;2023-07-24T14:17:21;6.63;;;5.15;;
26540;SDS011;14206;50.202;10.948;2023-07-24T14:19:48;7.18;;;5.38;;
26540;SDS011;14206;50.202;10.948;2023-07-24T14:22:15;5.35;;;4.70;;
26540;SDS011;14206;50.202;10.948;2023-07-24T14:24:42;6.97;;;5.13;;
26540;SDS011;14206;50.202;10.948;2023-07-24T14:27:09;6.00;;;4.85;;
26540;SDS011;14206;50.202;10.948;2023-07-24T14:29:36;7.63;;;6.20;;
26540;SDS011;14206;50.202;10.948;2023-07-24T14:32:03;6.40;;;5.20;;
26540;SDS011;14206;50.202;10.948;2023-07-24T14:34:30;5.93;;;4.88;;
26540;SDS011;14206;50.202;10.948;2023-07-24T14:36:57;5.63;;;4.85;;
26540;SDS011;14206;50.202;10.948;2023-07-24T14:39:24;7.05;;;5.75;;
26540;SDS011;14206;50.202;10.948;2023-07-24T14:41:51;6.60;;;4.85;;
26540;SDS011;14206;50.202;10.948;2023-07-24T14:44:18;6.80;;;4.85;;